Time;durP1;ratioP1;P1;durP2;ratioP2;P2;SDS_P1;SDS_P2;PMS_P1;PMS_P2;Temp;Humidity;BMP_temperature;BMP_pressure;BME280_temperature;BME280_humidity;BME280_pressure;Samples;Min_cycle;Max_cycle;Signal;HPM_P1;HPM_P2
2022/08/11 00:02:30;;;;;;;7.00;6.50;;;;;;;23.23;69.85;94986.47;5054126;28;20446;-78
2022/08/11 00:05:04;;;;;;;7.53;6.83;;;;;;;23.27;69.58;94980.50;5054284;28;20461;-78
2022/08/11 00:07:32;;;;;;;6.37;5.87;;;;;;;23.30;69.67;94993.47;5054037;28;20454;-78
2022/08/11 00:10:00;;;;;;;9.13;6.67;;;;;;;23.25;69.58;94977.22;5054105;28;20446;-79
2022/08/11 00:12:28;;;;;;;7.60;7.00;;;;;;;23.29;69.53;94988.34;5054023;28;20449;-79
2022/08/11 00:15:00;;;;;;;7.80;6.50;;;;;;;23.26;69.55;94976.19;5053778;28;20485;-78
2022/08/11 00:17:30;;;;;;;5.93;5.53;;;;;;;23.27;69.99;94977.84;5054193;28;20790;-78
2022/08/11 00:20:05;;;;;;;6.90;6.30;;;;;;;23.25;69.53;94973.72;5053727;28;20445;-78
2022/08/11 00:22:33;;;;;;;8.97;6.97;;;;;;;23.21;69.63;94981.34;5054238;28;20441;-78
2022/08/11 00:25:01;;;;;;;6.30;5.80;;;;;;;23.11;70.03;94978.22;5053903;28;20449;-78
2022/08/11 00:27:32;;;;;;;8.37;6.50;;;;;;;23.12;70.31;94983.38;5053843;28;20450;-79
2022/08/11 00:30:01;;;;;;;6.70;6.10;;;;;;;23.07;70.54;94977.00;5053629;28;20974;-78
2022/08/11 00:32:29;;;;;;;7.03;6.43;;;;;;;23.05;70.64;94973.69;5053535;28;20446;-78
2022/08/11 00:34:58;;;;;;;6.97;6.23;;;;;;;23.01;70.80;94975.13;5053726;28;20551;-79
2022/08/11 00:37:25;;;;;;;6.47;5.93;;;;;;;22.99;70.86;94970.00;5053562;28;21006;-78
2022/08/11 00:39:55;;;;;;;7.30;6.70;;;;;;;22.99;70.89;94970.00;5053533;28;20487;-79
2022/08/11 00:42:35;;;;;;;7.30;6.63;;;;;;;22.91;71.16;94983.56;5053541;28;20454;-78
2022/08/11 00:45:13;;;;;;;6.40;5.97;;;;;;;22.89;71.24;94976.78;5053599;28;20819;-79
2022/08/11 00:47:55;;;;;;;7.40;6.80;;;;;;;22.81;71.55;94967.91;5053754;28;20468;-79
2022/08/11 00:50:29;;;;;;;6.77;6.23;;;;;;;22.83;71.80;94981.91;5053159;28;20448;-79
2022/08/11 00:53:12;;;;;;;6.83;6.20;;;;;;;22.82;71.79;94982.09;5053478;28;20471;-78
2022/08/11 00:56:15;;;;;;;7.80;6.90;;;;;;;22.76;72.01;94975.69;5053402;28;20485;-78
2022/08/11 00:59:29;;;;;;;7.50;6.77;;;;;;;22.73;72.19;94983.28;5053332;28;20512;-79
2022/08/11 01:02:11;;;;;;;6.87;6.27;;;;;;;22.77;72.07;94981.84;4991387;28;20452;-78
2022/08/11 01:05:04;;;;;;;6.53;6.00;;;;;;;22.76;72.11;94978.34;4991570;28;20444;-79
2022/08/11 01:08:13;;;;;;;6.97;5.97;;;;;;;22.78;71.95;94978.97;4914341;29;21027;-79
2022/08/11 01:10:59;;;;;;;7.10;6.40;;;;;;;22.77;71.65;94977.34;4914499;29;20955;-78
2022/08/11 01:13:52;;;;;;;7.00;6.50;;;;;;;22.79;71.76;94988.66;4914294;29;20462;-78
2022/08/11 01:16:58;;;;;;;7.43;6.30;;;;;;;22.75;71.65;94979.38;4914446;29;20452;-78
2022/08/11 01:19:56;;;;;;;6.83;6.33;;;;;;;22.70;71.88;94976.50;4839525;29;20467;-78
2022/08/11 01:23:03;;;;;;;9.87;6.57;;;;;;;22.66;72.16;94972.59;4839530;29;20467;-79
2022/08/11 01:26:01;;;;;;;7.10;6.40;;;;;;;22.65;72.25;94972.78;4803212;29;20968;-80
2022/08/11 01:29:13;;;;;;;7.17;5.90;;;;;;;22.66;72.21;94969.09;4785240;30;20867;-79
2022/08/11 01:31:57;;;;;;;9.53;6.40;;;;;;;22.60;72.65;94965.38;4784931;30;20458;-79
2022/08/11 01:35:16;;;;;;;6.37;5.80;;;;;;;22.55;72.50;94962.44;4785034;29;20497;-78
2022/08/11 01:38:30;;;;;;;6.77;6.03;;;;;;;22.46;72.97;94963.69;4788145;29;20465;-78
2022/08/11 01:44:36;;;;;;;6.57;5.97;;;;;;;22.41;73.30;94961.59;4821360;29;20465;-79
2022/08/11 01:44:42;;;;;;;7.80;7.20;;;;;;;22.41;73.26;94956.25;4844108;29;20543;-78
2022/08/11 01:50:13;;;;;;;8.00;7.20;;;;;;;22.40;73.67;94959.13;4856928;29;21000;-79
2022/08/11 01:52:55;;;;;;;6.60;6.00;;;;;;;22.41;73.09;94955.44;4857670;29;20520;-78
2022/08/11 01:55:29;;;;;;;7.20;6.50;;;;;;;22.49;72.94;94957.91;4876273;29;21085;-77
2022/08/11 01:58:09;;;;;;;7.67;6.90;;;;;;;22.54;72.36;94955.47;4913300;29;20494;-78
2022/08/11 02:00:56;;;;;;;7.30;6.37;;;;;;;22.61;72.05;94961.66;4913780;29;20459;-78
2022/08/11 02:03:36;;;;;;;7.73;7.13;;;;;;;22.66;71.84;94966.41;4951335;28;20457;-79
2022/08/11 02:06:53;;;;;;;8.60;7.80;;;;;;;22.67;71.63;94962.72;4999196;28;20447;-77
2022/08/11 02:09:07;;;;;;;9.63;6.60;;;;;;;22.65;71.33;94957.56;5009789;28;20440;-79
2022/08/11 02:11:36;;;;;;;7.33;6.77;;;;;;;22.62;71.68;94959.81;5009828;28;20443;-79
2022/08/11 02:14:26;;;;;;;7.63;6.67;;;;;;;22.60;71.96;94960.03;5009983;28;20454;-79
2022/08/11 02:17:11;;;;;;;7.30;6.70;;;;;;;22.55;71.92;94949.94;5009890;28;20440;-78
2022/08/11 02:25:41;;;;;;;6.97;6.20;;;;;;;22.56;71.87;94961.47;5051698;28;20935;-78
2022/08/11 02:28:19;;;;;;;7.93;7.00;;;;;;;22.49;72.46;94957.91;5051641;28;20481;-79
2022/08/11 02:33:43;;;;;;;7.37;6.67;;;;;;;22.42;72.88;94960.59;5051559;28;20438;-78
2022/08/11 02:36:18;;;;;;;8.07;7.27;;;;;;;22.39;72.57;94954.81;5051432;28;20481;-77
2022/08/11 02:38:53;;;;;;;10.43;7.40;;;;;;;22.33;72.83;94947.59;5051465;28;20867;-79
2022/08/11 02:44:24;;;;;;;7.30;6.70;;;;;;;22.38;72.58;94956.66;5022625;28;20785;-77
2022/08/11 02:47:08;;;;;;;6.83;6.20;;;;;;;22.27;73.05;94953.75;5051706;28;20450;-78
2022/08/11 02:49:53;;;;;;;10.83;7.87;;;;;;;22.16;73.21;94957.81;5051763;28;20442;-79
2022/08/11 02:52:30;;;;;;;10.97;7.87;;;;;;;22.09;73.71;94962.31;5051706;28;20479;-78
2022/08/11 02:55:14;;;;;;;10.27;6.30;;;;;;;22.02;74.38;94958.75;5051682;28;20485;-79
2022/08/11 02:57:48;;;;;;;7.40;6.80;;;;;;;21.94;74.54;94959.72;5051382;28;20496;-79
2022/08/11 03:00:17;;;;;;;7.93;7.13;;;;;;;22.00;74.60;94958.13;5051480;28;20449;-79
2022/08/11 03:02:59;;;;;;;8.30;7.13;;;;;;;21.96;74.72;94958.50;5051340;28;20441;-78
2022/08/11 03:05:44;;;;;;;9.83;8.33;;;;;;;21.91;74.75;94954.78;5051578;28;20449;-79
2022/08/11 03:08:25;;;;;;;7.40;6.80;;;;;;;21.93;74.69;94958.09;4970293;28;20461;-78
2022/08/11 03:16:49;;;;;;;8.67;7.00;;;;;;;21.98;74.28;94969.03;4973818;28;20515;-79
2022/08/11 03:19:26;;;;;;;7.43;6.80;;;;;;;21.92;74.32;94967.94;4973793;28;20456;-78
2022/08/11 03:22:03;;;;;;;8.63;7.03;;;;;;;21.92;73.82;94983.16;4925867;28;20433;-79
2022/08/11 03:24:49;;;;;;;7.37;6.43;;;;;;;21.84;74.57;94975.31;4973925;28;20456;-79
2022/08/11 03:27:29;;;;;;;8.43;7.67;;;;;;;21.83;74.81;94971.00;4973609;28;20461;-79
2022/08/11 03:30:07;;;;;;;7.73;7.03;;;;;;;21.81;74.49;94962.34;4973675;28;20438;-78
2022/08/11 03:32:41;;;;;;;9.60;7.27;;;;;;;21.84;74.81;94965.44;4973877;28;20446;-78
2022/08/11 03:35:10;;;;;;;11.13;7.83;;;;;;;21.82;74.82;94962.16;4973699;28;20483;-79
2022/08/11 03:37:51;;;;;;;7.97;7.17;;;;;;;21.74;74.84;94965.00;4941772;28;20445;-78
2022/08/11 03:43:54;;;;;;;7.83;7.13;;;;;;;21.80;74.99;94972.22;4973675;28;20425;-78
2022/08/11 03:46:41;;;;;;;8.03;7.43;;;;;;;21.81;74.88;94965.03;5043238;28;20483;-78
2022/08/11 03:49:25;;;;;;;9.20;8.10;;;;;;;21.80;74.76;94971.38;5054815;28;20529;-78
2022/08/11 03:52:02;;;;;;;7.63;6.90;;;;;;;21.80;74.71;94969.53;5054528;28;20460;-79
2022/08/11 03:54:41;;;;;;;12.33;7.47;;;;;;;21.77;74.76;94972.59;5054361;28;20453;-79
2022/08/11 03:57:50;;;;;;;8.20;7.50;;;;;;;21.81;74.63;94978.38;5053988;28;20464;-78
2022/08/11 04:00:40;;;;;;;8.17;7.47;;;;;;;21.89;74.59;94978.22;4992497;28;20467;-79
2022/08/11 04:03:42;;;;;;;7.50;6.80;;;;;;;21.92;74.54;94975.97;4992504;28;20452;-79
2022/08/11 04:06:46;;;;;;;10.43;6.87;;;;;;;22.14;73.98;94976.72;4953946;29;20833;-79
2022/08/11 04:10:07;;;;;;;8.90;8.10;;;;;;;22.57;73.01;94971.13;4953679;29;20977;-77
2022/08/11 04:13:14;;;;;;;7.50;6.87;;;;;;;23.22;70.19;94977.63;4934468;29;20453;-79
2022/08/11 04:16:06;;;;;;;8.03;7.23;;;;;;;23.91;67.20;94985.19;4934441;29;20490;-78
2022/08/11 04:19:03;;;;;;;8.27;7.00;;;;;;;24.55;64.21;94984.38;4934385;29;20448;-79
2022/08/11 04:22:02;;;;;;;8.47;7.63;;;;;;;25.03;62.19;94983.94;4934461;29;20447;-79
2022/08/11 04:25:14;;;;;;;7.53;6.83;;;;;;;25.42;60.76;94984.66;4877462;29;20445;-78
2022/08/11 04:28:01;;;;;;;6.83;6.20;;;;;;;25.86;59.03;94986.38;4840558;29;20448;-79
2022/08/11 04:30:34;;;;;;;6.90;6.30;;;;;;;26.18;58.00;94984.38;4840569;29;20448;-79
2022/08/11 04:33:43;;;;;;;6.13;5.63;;;;;;;26.50;56.85;94995.81;4825156;29;20618;-80
2022/08/11 04:39:36;;;;;;;7.87;6.33;;;;;;;27.03;55.18;94993.28;4840523;29;20488;-79
2022/08/11 04:45:40;;;;;;;9.13;7.27;;;;;;;27.42;53.98;94977.53;4898363;29;20895;-79
2022/08/11 05:03:31;;;;;;;7.23;6.53;;;;;;;28.59;51.34;94994.53;4982360;28;20432;-79
2022/08/11 05:06:29;;;;;;;6.77;6.20;;;;;;;28.86;50.37;94975.91;4991244;28;20453;-79
2022/08/11 05:09:30;;;;;;;7.07;6.37;;;;;;;29.09;50.39;94993.06;4991347;28;20487;-79
2022/08/11 05:12:13;;;;;;;7.10;6.47;;;;;;;29.32;49.71;94990.25;4914145;29;20459;-79
2022/08/11 05:37:22;;;;;;;8.23;6.93;;;;;;;29.95;47.20;94983.72;4959361;28;20562;-80
2022/08/11 05:56:44;;;;;;;8.23;7.10;;;;;;;30.45;46.18;94980.09;5051810;28;20477;-79
2022/08/11 05:59:16;;;;;;;14.20;8.00;;;;;;;30.39;45.86;94970.28;5051985;28;20476;-79
2022/08/11 06:01:44;;;;;;;8.70;7.73;;;;;;;30.45;46.08;94974.69;5051969;28;20445;-78
2022/08/11 06:04:18;;;;;;;10.57;7.03;;;;;;;30.69;45.47;94970.69;5051994;28;20446;-78
2022/08/11 06:07:07;;;;;;;9.33;7.43;;;;;;;30.99;44.49;94980.22;5052047;28;20448;-78
2022/08/11 06:09:37;;;;;;;8.53;6.73;;;;;;;31.21;44.37;94978.28;5051314;28;20826;-79
2022/08/11 06:12:07;;;;;;;9.80;8.50;;;;;;;31.23;44.27;94975.34;5051870;28;20442;-79
2022/08/11 06:14:41;;;;;;;9.20;8.20;;;;;;;30.77;45.68;94972.94;5038459;28;20470;-79
2022/08/11 06:17:08;;;;;;;7.93;7.13;;;;;;;30.77;45.40;94969.41;5051974;28;20481;-78
2022/08/11 06:19:38;;;;;;;8.00;7.30;;;;;;;31.02;45.29;94968.88;5016906;28;20430;-79
2022/08/11 06:22:08;;;;;;;8.17;7.37;;;;;;;31.05;45.75;94965.66;5052076;28;20437;-79
2022/08/11 06:24:40;;;;;;;10.93;8.47;;;;;;;30.93;45.44;94965.78;5051915;28;20454;-79
2022/08/11 06:27:08;;;;;;;7.60;6.97;;;;;;;30.93;45.42;94965.78;5052195;28;20434;-78
2022/08/11 06:29:39;;;;;;;9.70;7.83;;;;;;;31.17;45.05;94966.31;5051967;28;20453;-79
2022/08/11 06:32:07;;;;;;;17.90;13.50;;;;;;;31.43;43.75;94962.78;5051711;28;20460;-79
2022/08/11 06:34:47;;;;;;;8.40;7.20;;;;;;;31.53;42.05;94958.53;5051536;28;20809;-78
2022/08/11 06:37:21;;;;;;;10.47;5.97;;;;;;;31.02;42.30;94963.44;5052079;28;20835;-79
2022/08/11 06:39:58;;;;;;;7.13;6.47;;;;;;;30.88;42.62;94963.03;5016750;28;20438;-79
2022/08/11 06:42:36;;;;;;;6.90;6.20;;;;;;;30.51;43.85;94962.84;5052049;28;20551;-79
2022/08/11 06:45:12;;;;;;;7.20;5.57;;;;;;;30.36;43.99;94965.34;5052025;28;20460;-79
2022/08/11 06:47:46;;;;;;;7.67;6.90;;;;;;;30.15;45.06;94965.09;5052128;28;20449;-80
2022/08/11 06:53:05;;;;;;;6.70;5.97;;;;;;;30.13;45.69;94953.69;5055933;28;20535;-81
2022/08/11 07:01:12;;;;;;;7.00;6.30;;;;;;;30.43;43.17;94956.00;5055509;28;20915;-81
2022/08/11 07:03:45;;;;;;;5.90;5.47;;;;;;;30.10;43.33;94956.91;5055942;28;20445;-80
2022/08/11 07:06:31;;;;;;;8.70;6.93;;;;;;;29.95;43.46;94958.53;5021012;28;20845;-80
2022/08/11 07:30:27;;;;;;;6.30;5.53;;;;;;;30.66;41.52;94965.78;5055065;28;20487;-81
2022/08/11 07:32:59;;;;;;;5.90;5.30;;;;;;;30.67;41.49;94966.59;5054786;28;20452;-80
2022/08/11 07:35:33;;;;;;;5.53;5.03;;;;;;;30.72;40.82;94963.94;5054713;28;20437;-79
2022/08/11 07:38:04;;;;;;;6.10;5.60;;;;;;;30.93;41.13;94964.97;5054919;28;20491;-80
2022/08/11 07:40:33;;;;;;;5.97;5.37;;;;;;;30.53;39.95;94947.97;5055013;28;20446;-80
2022/08/11 07:43:01;;;;;;;6.70;5.30;;;;;;;30.25;41.89;94959.00;5054885;28;20541;-80
2022/08/11 07:53:47;;;;;;;5.80;5.30;;;;;;;29.87;41.71;94962.50;5025284;28;20425;-79
2022/08/11 07:56:15;;;;;;;6.67;5.97;;;;;;;29.92;41.48;94954.44;5054141;28;20862;-80
2022/08/11 08:18:08;;;;;;;5.03;4.63;;;;;;;31.00;40.16;94943.91;5054160;28;20851;-80
2022/08/11 08:20:39;;;;;;;31.47;5.57;;;;;;;30.74;39.63;94943.66;5054076;28;20446;-80
2022/08/11 08:23:07;;;;;;;4.80;4.37;;;;;;;30.01;39.83;94936.72;5054120;28;20445;-80
2022/08/11 08:25:36;;;;;;;5.23;4.83;;;;;;;29.72;40.96;94943.31;5053870;28;20848;-80
2022/08/11 08:28:07;;;;;;;5.00;4.60;;;;;;;29.31;40.82;94934.53;5053795;28;20975;-80
2022/08/11 08:30:49;;;;;;;7.73;5.00;;;;;;;29.10;43.34;94935.25;5054389;28;20853;-80
2022/08/11 08:33:20;;;;;;;6.00;5.47;;;;;;;28.44;44.15;94939.41;5054191;28;20457;-80
2022/08/11 08:36:09;;;;;;;5.53;5.13;;;;;;;28.10;44.57;94946.50;5053650;28;20845;-80
2022/08/11 08:38:37;;;;;;;6.00;5.40;;;;;;;28.27;44.18;94931.22;5053961;28;20450;-79
2022/08/11 08:41:05;;;;;;;7.87;5.40;;;;;;;28.58;44.39;94936.19;5053500;28;20460;-79
2022/08/11 08:43:33;;;;;;;5.77;5.27;;;;;;;28.83;43.36;94927.72;5018379;28;20434;-80
2022/08/11 08:46:01;;;;;;;9.07;4.93;;;;;;;28.81;44.33;94921.75;5053654;28;20453;-79
2022/08/11 08:48:31;;;;;;;5.20;4.40;;;;;;;29.15;44.51;94924.53;5053485;28;20442;-80
2022/08/11 08:53:51;;;;;;;5.13;4.70;;;;;;;29.55;40.90;94925.25;5053252;28;21060;-80
2022/08/11 08:56:19;;;;;;;7.40;5.50;;;;;;;29.60;41.79;94936.13;5053473;28;20508;-80
2022/08/11 08:58:49;;;;;;;6.33;5.37;;;;;;;29.72;41.28;94927.91;5053550;28;20482;-80
2022/08/11 09:01:20;;;;;;;6.03;5.30;;;;;;;29.51;41.15;94932.22;5018425;28;20452;-80
2022/08/11 09:03:47;;;;;;;5.60;5.20;;;;;;;29.68;42.37;94917.84;5053093;28;20442;-80
2022/08/11 09:06:16;;;;;;;6.00;5.40;;;;;;;29.94;41.58;94919.03;5053378;28;20460;-80
2022/08/11 09:08:44;;;;;;;5.80;5.30;;;;;;;30.10;41.06;94912.78;5052928;28;20442;-81
2022/08/11 09:13:58;;;;;;;4.90;4.50;;;;;;;29.74;40.71;94903.31;5023165;28;20430;-80
2022/08/11 09:16:26;;;;;;;7.80;6.37;;;;;;;30.00;39.67;94908.00;5053153;28;20596;-80
2022/08/11 09:18:53;;;;;;;5.93;5.37;;;;;;;30.10;40.42;94900.06;5052974;28;20434;-80
2022/08/11 09:21:23;;;;;;;5.60;4.87;;;;;;;30.15;40.41;94894.72;5052762;28;20529;-80
2022/08/11 09:29:21;;;;;;;5.63;5.13;;;;;;;29.38;41.65;94894.63;5052900;28;20634;-80
2022/08/11 09:31:49;;;;;;;5.23;4.83;;;;;;;29.34;42.39;94898.09;5052732;28;20928;-81
2022/08/11 09:34:16;;;;;;;5.73;5.20;;;;;;;29.60;41.28;94898.25;5052829;28;20454;-79
2022/08/11 09:42:17;;;;;;;5.30;4.90;;;;;;;28.94;40.18;94890.97;5052392;28;20786;-80
2022/08/11 09:44:51;;;;;;;6.60;5.87;;;;;;;29.07;42.49;94889.81;5052932;28;20450;-80
2022/08/11 09:47:23;;;;;;;6.87;5.40;;;;;;;29.05;42.86;94884.66;5033558;28;21049;-80
2022/08/11 09:49:52;;;;;;;7.80;6.13;;;;;;;29.09;42.85;94885.78;5018829;28;20457;-81
2022/08/11 09:52:23;;;;;;;5.90;5.47;;;;;;;29.34;42.57;94893.50;5052394;28;20449;-80
2022/08/11 09:54:52;;;;;;;5.87;5.37;;;;;;;29.53;42.39;94881.41;5052791;28;20680;-80
2022/08/11 10:00:07;;;;;;;4.90;4.50;;;;;;;29.84;41.82;94879.94;5052217;28;20445;-80
2022/08/11 10:02:37;;;;;;;7.73;6.00;;;;;;;29.81;41.16;94868.81;5052177;28;20499;-80
2022/08/11 10:07:52;;;;;;;6.00;5.57;;;;;;;29.34;41.42;94874.56;5022534;28;20429;-81
2022/08/11 10:10:21;;;;;;;5.97;4.87;;;;;;;29.36;41.69;94869.75;5052142;28;20441;-80
2022/08/11 10:12:51;;;;;;;6.00;5.50;;;;;;;29.37;41.21;94848.94;5033161;28;20433;-80
2022/08/11 10:15:34;;;;;;;5.20;4.70;;;;;;;29.32;41.33;94863.19;5052054;28;20442;-80
2022/08/11 10:20:53;;;;;;;11.93;5.97;;;;;;;28.97;43.29;94864.28;5052131;28;20453;-79
2022/08/11 10:28:54;;;;;;;7.03;6.17;;;;;;;28.54;43.73;94866.69;5052182;28;20488;-79
2022/08/11 10:34:08;;;;;;;7.37;6.10;;;;;;;28.92;44.79;94856.09;5051768;28;20568;-81
2022/08/11 10:36:43;;;;;;;5.70;5.30;;;;;;;28.94;43.59;94850.44;5051779;28;20489;-80
2022/08/11 10:39:16;;;;;;;6.87;6.20;;;;;;;28.90;43.00;94852.78;5051945;28;20452;-80
2022/08/11 10:44:29;;;;;;;6.07;5.57;;;;;;;28.59;45.13;94847.88;5051966;28;20783;-80
2022/08/11 10:49:41;;;;;;;7.30;6.73;;;;;;;28.10;45.82;94844.78;5052018;28;20476;-80
2022/08/11 11:00:24;;;;;;;6.60;6.03;;;;;;;28.48;46.02;94830.69;5051717;28;20479;-80
2022/08/11 11:02:52;;;;;;;7.13;6.53;;;;;;;28.59;44.77;94831.69;5051680;28;20446;-79
2022/08/11 11:05:24;;;;;;;6.40;5.87;;;;;;;28.70;44.34;94828.13;5051638;28;21005;-80
2022/08/11 11:07:59;;;;;;;6.40;5.63;;;;;;;28.61;44.37;94834.94;5051492;28;20860;-80
2022/08/11 11:10:27;;;;;;;7.17;6.47;;;;;;;28.70;44.67;94828.13;5051922;28;20932;-80
2022/08/11 11:18:34;;;;;;;5.90;5.50;;;;;;;28.67;43.76;94832.13;5051645;28;20538;-79
2022/08/11 11:21:06;;;;;;;5.40;5.00;;;;;;;28.78;43.72;94830.41;5051662;28;20481;-79
2022/08/11 11:23:46;;;;;;;5.40;4.90;;;;;;;28.86;42.63;94826.50;5051623;28;20801;-79
2022/08/11 11:26:33;;;;;;;13.00;5.70;;;;;;;28.97;43.04;94825.63;5051440;28;20456;-80
2022/08/11 11:29:21;;;;;;;7.13;4.67;;;;;;;28.79;41.81;94836.63;5051655;28;20438;-79
2022/08/11 11:32:09;;;;;;;6.00;5.60;;;;;;;28.64;41.67;94839.91;5051344;28;20445;-79
2022/08/11 11:35:04;;;;;;;6.33;5.70;;;;;;;28.18;41.61;94833.63;5051514;28;20446;-79
2022/08/11 11:37:34;;;;;;;12.80;5.90;;;;;;;27.99;43.00;94832.13;4993273;28;20871;-79
2022/08/11 11:40:02;;;;;;;6.57;5.57;;;;;;;27.94;42.61;94827.47;4993358;28;20444;-79
2022/08/11 11:42:31;;;;;;;7.27;4.80;;;;;;;28.07;43.06;94838.00;4993251;28;20451;-79
2022/08/11 11:44:59;;;;;;;5.73;5.10;;;;;;;28.17;46.42;94840.06;4993109;28;20444;-80
2022/08/11 11:47:27;;;;;;;5.53;4.23;;;;;;;28.16;48.34;94833.03;4993254;28;20527;-79
2022/08/11 11:49:54;;;;;;;5.67;4.83;;;;;;;28.05;49.39;94839.31;4993269;28;20463;-79
2022/08/11 11:52:23;;;;;;;5.83;5.30;;;;;;;27.90;47.92;94831.72;4961239;28;20444;-80
2022/08/11 11:54:54;;;;;;;4.93;4.53;;;;;;;27.89;49.25;94829.25;4993213;28;20828;-79
2022/08/11 12:02:56;;;;;;;6.40;5.87;;;;;;;27.83;49.20;94831.03;4992992;28;20491;-79
2022/08/11 12:05:24;;;;;;;6.43;5.70;;;;;;;27.86;48.95;94824.34;4992709;28;20483;-80
2022/08/11 12:08:14;;;;;;;7.37;6.07;;;;;;;27.91;48.82;94816.34;4992716;28;20451;-79
2022/08/11 12:10:45;;;;;;;5.80;5.30;;;;;;;27.87;48.78;94817.88;4992677;28;21014;-80
2022/08/11 12:16:02;;;;;;;6.90;5.50;;;;;;;27.46;48.63;94806.19;5054218;28;20441;-80
2022/08/11 12:18:31;;;;;;;5.90;5.40;;;;;;;27.26;49.62;94811.16;5054106;28;20489;-79
2022/08/11 12:20:58;;;;;;;6.33;5.70;;;;;;;27.39;50.99;94805.50;5054293;28;20434;-79
2022/08/11 12:29:06;;;;;;;8.47;5.63;;;;;;;27.82;47.61;94799.72;5053791;28;20425;-80
2022/08/11 12:31:36;;;;;;;5.93;5.40;;;;;;;27.87;47.30;94801.69;5054368;28;20438;-79
2022/08/11 12:34:04;;;;;;;6.33;5.73;;;;;;;27.87;48.82;94807.91;5054097;28;20457;-79
2022/08/11 12:36:36;;;;;;;5.00;4.60;;;;;;;27.76;47.23;94801.50;5054040;28;20496;-80
2022/08/11 12:39:05;;;;;;;10.03;5.30;;;;;;;27.71;48.88;94798.69;5054084;28;20453;-80
2022/08/11 12:47:04;;;;;;;22.70;5.77;;;;;;;27.60;48.36;94806.78;5053329;28;20937;-80
2022/08/11 12:52:25;;;;;;;6.43;5.70;;;;;;;27.21;49.63;94819.13;5053433;28;20433;-81
2022/08/11 12:54:58;;;;;;;7.33;6.67;;;;;;;26.90;50.79;94821.09;5053474;28;20453;-80
2022/08/11 13:05:54;;;;;;;7.67;6.37;;;;;;;26.74;51.63;94813.66;5053249;28;20802;-80
2022/08/11 13:08:23;;;;;;;6.77;6.13;;;;;;;26.57;51.54;94808.13;5053035;28;20799;-80
2022/08/11 13:13:38;;;;;;;6.47;5.80;;;;;;;26.34;54.62;94819.69;5052972;28;20491;-80
2022/08/11 13:16:06;;;;;;;9.53;6.00;;;;;;;26.08;56.45;94809.25;5052915;28;20438;-81
2022/08/11 13:18:34;;;;;;;8.03;5.53;;;;;;;25.96;57.95;94832.56;5053027;28;20508;-79
2022/08/11 13:21:02;;;;;;;6.20;5.30;;;;;;;25.97;57.93;94824.28;5017670;28;20457;-79
2022/08/11 13:23:29;;;;;;;6.10;5.37;;;;;;;26.01;56.52;94809.31;5052926;28;20442;-79
2022/08/11 13:25:56;;;;;;;7.60;5.40;;;;;;;26.12;56.62;94819.31;5053025;28;20442;-79
2022/08/11 13:28:24;;;;;;;9.07;5.77;;;;;;;26.17;56.07;94813.25;5052746;28;20446;-79
2022/08/11 13:31:13;;;;;;;6.30;5.80;;;;;;;26.13;55.70;94822.84;5052945;28;20453;-81
2022/08/11 13:33:44;;;;;;;7.43;4.97;;;;;;;26.07;56.06;94824.56;5052437;28;20453;-79
2022/08/11 13:36:14;;;;;;;8.93;5.80;;;;;;;26.24;55.18;94814.78;5017434;28;20441;-80
2022/08/11 13:38:43;;;;;;;5.97;5.47;;;;;;;26.30;54.50;94807.66;5052595;28;20538;-81
2022/08/11 13:43:53;;;;;;;6.23;5.77;;;;;;;26.30;54.08;94812.22;5052377;28;20838;-81
2022/08/11 13:46:23;;;;;;;6.33;5.00;;;;;;;26.28;53.98;94809.78;5052451;28;20477;-79
2022/08/11 13:48:53;;;;;;;9.93;4.80;;;;;;;26.23;52.61;94799.69;5052393;28;20442;-79
2022/08/11 13:51:32;;;;;;;5.47;4.70;;;;;;;26.12;51.50;94805.06;5052547;28;20442;-79
2022/08/11 13:54:00;;;;;;;5.93;5.20;;;;;;;26.12;51.57;94803.19;5052594;28;20434;-80
2022/08/11 13:56:28;;;;;;;4.90;4.50;;;;;;;26.11;51.50;94806.09;5052305;28;20453;-79
2022/08/11 13:58:56;;;;;;;4.80;4.40;;;;;;;26.20;51.39;94805.53;5051044;28;20493;-79
2022/08/11 14:01:26;;;;;;;5.30;4.83;;;;;;;26.30;50.86;94798.78;5052142;28;20445;-80
2022/08/11 14:03:55;;;;;;;7.57;4.50;;;;;;;26.48;51.12;94793.38;5052423;28;20453;-79
2022/08/11 14:06:23;;;;;;;5.33;4.83;;;;;;;26.48;51.29;94801.44;5033285;28;20452;-80
2022/08/11 14:08:53;;;;;;;4.87;4.47;;;;;;;26.58;50.59;94792.78;5052104;28;20446;-80
2022/08/11 14:14:09;;;;;;;6.17;5.37;;;;;;;26.67;49.63;94791.44;5052170;28;20483;-80
2022/08/11 14:16:41;;;;;;;7.50;4.70;;;;;;;26.88;50.11;94787.34;5052483;28;20530;-79
2022/08/11 14:19:13;;;;;;;6.03;4.40;;;;;;;26.98;47.78;94785.72;5051808;28;20493;-80
2022/08/11 14:24:28;;;;;;;5.53;5.13;;;;;;;27.14;48.47;94785.03;5051904;28;20788;-80
2022/08/11 14:26:55;;;;;;;6.30;3.80;;;;;;;27.22;47.75;94780.34;5052286;28;20453;-80
2022/08/11 14:29:26;;;;;;;4.30;4.00;;;;;;;27.24;46.98;94779.06;5051868;28;20445;-78
2022/08/11 14:31:56;;;;;;;5.63;4.50;;;;;;;27.31;46.91;94777.06;5051692;28;20528;-80
2022/08/11 14:34:28;;;;;;;5.23;4.73;;;;;;;27.19;46.98;94773.56;5051868;28;20430;-79
2022/08/11 14:36:57;;;;;;;5.00;4.60;;;;;;;27.12;46.30;94784.44;5052034;28;20466;-79
2022/08/11 14:39:27;;;;;;;5.40;4.90;;;;;;;27.04;46.61;94779.41;5051811;28;20486;-79
2022/08/11 14:47:44;;;;;;;4.60;4.07;;;;;;;27.20;45.49;94774.38;4949571;28;20546;-79
2022/08/11 14:50:16;;;;;;;5.20;4.70;;;;;;;27.18;45.10;94771.94;4990155;28;20444;-79
2022/08/11 14:52:49;;;;;;;4.60;4.20;;;;;;;27.26;45.31;94768.03;4957732;28;20452;-80
2022/08/11 14:58:03;;;;;;;5.30;4.80;;;;;;;27.31;45.96;94773.53;4989788;28;21018;-80
2022/08/11 15:00:32;;;;;;;5.43;4.40;;;;;;;27.30;45.71;94770.03;4989795;28;20451;-80
2022/08/11 15:03:09;;;;;;;4.40;4.00;;;;;;;27.25;44.19;94767.22;4990057;28;20865;-79
2022/08/11 15:05:39;;;;;;;4.50;4.20;;;;;;;27.29;44.68;94770.25;4989938;28;20451;-78
2022/08/11 15:08:07;;;;;;;5.13;4.70;;;;;;;27.32;46.04;94772.47;4990099;28;20484;-80
2022/08/11 15:10:35;;;;;;;5.77;4.03;;;;;;;27.21;46.60;94773.31;4993065;28;20459;-80
2022/08/11 15:13:02;;;;;;;5.93;5.43;;;;;;;27.06;47.70;94763.84;4993756;28;20444;-79
2022/08/11 15:18:18;;;;;;;4.87;4.53;;;;;;;26.94;47.46;94764.88;5055386;28;21063;-79
2022/08/11 15:37:45;;;;;;;12.63;5.20;;;;;;;26.77;49.11;94760.19;4993354;28;20638;-79
2022/08/11 15:46:01;;;;;;;8.87;5.97;;;;;;;26.70;48.87;94758.66;4993456;28;20801;-79
2022/08/11 15:48:36;;;;;;;6.80;4.97;;;;;;;26.68;48.81;94758.06;4993197;28;20447;-79
2022/08/11 15:51:09;;;;;;;5.50;5.03;;;;;;;26.69;48.81;94749.75;4992944;28;20451;-80
2022/08/11 15:53:43;;;;;;;5.23;4.83;;;;;;;26.51;48.63;94747.97;4992912;28;20448;-80
2022/08/11 15:56:11;;;;;;;5.40;4.90;;;;;;;26.49;48.73;94760.84;4992832;28;20492;-79
2022/08/11 16:04:17;;;;;;;8.50;4.63;;;;;;;26.51;49.78;94756.06;5054256;28;20424;-79
2022/08/11 16:06:55;;;;;;;6.43;4.83;;;;;;;26.57;49.23;94769.63;5054328;28;20442;-78
2022/08/11 16:09:30;;;;;;;5.70;5.10;;;;;;;26.59;49.81;94768.34;5054492;28;20445;-80
2022/08/11 16:12:01;;;;;;;5.70;4.47;;;;;;;26.51;49.81;94772.19;5054167;28;20445;-79
2022/08/11 16:17:18;;;;;;;6.63;5.30;;;;;;;26.29;49.38;94764.84;5054341;28;20432;-78
2022/08/11 16:19:48;;;;;;;5.33;4.13;;;;;;;26.19;49.63;94762.72;5054031;28;20478;-80
2022/08/11 16:22:26;;;;;;;7.67;4.63;;;;;;;26.01;49.27;94760.91;5053191;28;20441;-79
2022/08/11 16:24:57;;;;;;;6.37;4.57;;;;;;;26.01;49.78;94766.28;5054308;28;20426;-79
2022/08/11 16:27:25;;;;;;;7.57;5.20;;;;;;;25.91;50.05;94766.03;5054293;28;20448;-79
2022/08/11 16:29:56;;;;;;;5.77;5.27;;;;;;;25.77;50.99;94764.59;5054063;28;20441;-79
2022/08/11 16:32:25;;;;;;;4.87;4.00;;;;;;;25.77;50.62;94770.78;5053823;28;20508;-79
2022/08/11 16:40:29;;;;;;;7.63;4.30;;;;;;;25.56;51.37;94784.66;5053814;28;20429;-80
2022/08/11 16:48:34;;;;;;;5.50;5.00;;;;;;;25.23;52.16;94769.75;5053526;28;20578;-79
2022/08/11 16:51:01;;;;;;;4.70;4.30;;;;;;;25.42;52.44;94786.66;5053837;28;20442;-79
2022/08/11 16:53:30;;;;;;;4.93;4.40;;;;;;;25.41;52.14;94778.81;5053826;28;20441;-79
2022/08/11 16:56:01;;;;;;;5.07;4.57;;;;;;;25.39;51.88;94786.28;5018288;28;20466;-79
2022/08/11 17:01:18;;;;;;;6.30;5.37;;;;;;;25.40;52.54;94796.81;5053318;28;20507;-79
2022/08/11 17:16:05;;;;;;;4.93;4.30;;;;;;;25.48;52.01;94804.59;5053045;28;20438;-79
2022/08/11 17:17:59;;;;;;;4.40;4.00;;;;;;;25.50;52.38;94812.44;5052882;28;20518;-79